sensor_id;sensor_type;location;lat;lon;timestamp;P1;durP1;ratioP1;P2;durP2;ratioP2
22531;SDS011;11432;46.924;7.114;2022-10-17T00:01:00;1.75;;;1.02;;
22531;SDS011;11432;46.924;7.114;2022-10-17T00:03:26;1.75;;;0.90;;
22531;SDS011;11432;46.924;7.114;2022-10-17T00:05:52;1.75;;;1.10;;
22531;SDS011;11432;46.924;7.114;2022-10-17T00:08:18;1.80;;;1.17;;
22531;SDS011;11432;46.924;7.114;2022-10-17T00:10:44;1.65;;;1.00;;
22531;SDS011;11432;46.924;7.114;2022-10-17T00:13:18;1.00;;;0.80;;
22531;SDS011;11432;46.924;7.114;2022-10-17T00:15:44;1.55;;;1.25;;
22531;SDS011;11432;46.924;7.114;2022-10-17T00:18:09;1.42;;;1.00;;
22531;SDS011;11432;46.924;7.114;2022-10-17T00:20:35;2.47;;;1.13;;
22531;SDS011;11432;46.924;7.114;2022-10-17T00:23:01;2.33;;;1.00;;
22531;SDS011;11432;46.924;7.114;2022-10-17T00:25:26;3.30;;;1.10;;
22531;SDS011;11432;46.924;7.114;2022-10-17T00:27:52;1.30;;;1.00;;
22531;SDS011;11432;46.924;7.114;2022-10-17T00:30:18;2.25;;;1.20;;
22531;SDS011;11432;46.924;7.114;2022-10-17T00:32:43;3.97;;;1.23;;
22531;SDS011;11432;46.924;7.114;2022-10-17T00:35:09;3.55;;;1.20;;
22531;SDS011;11432;46.924;7.114;2022-10-17T00:37:35;1.33;;;1.02;;
22531;SDS011;11432;46.924;7.114;2022-10-17T00:40:00;2.85;;;1.02;;
22531;SDS011;11432;46.924;7.114;2022-10-17T00:42:26;1.80;;;1.20;;
22531;SDS011;11432;46.924;7.114;2022-10-17T00:45:04;1.52;;;1.00;;
22531;SDS011;11432;46.924;7.114;2022-10-17T00:47:36;2.20;;;1.30;;
22531;SDS011;11432;46.924;7.114;2022-10-17T00:50:03;2.25;;;1.20;;
22531;SDS011;11432;46.924;7.114;2022-10-17T00:52:30;3.22;;;1.15;;
22531;SDS011;11432;46.924;7.114;2022-10-17T00:55:02;2.40;;;1.10;;
22531;SDS011;11432;46.924;7.114;2022-10-17T00:57:40;3.00;;;1.10;;
22531;SDS011;11432;46.924;7.114;2022-10-17T01:00:08;4.57;;;1.20;;
22531;SDS011;11432;46.924;7.114;2022-10-17T01:02:35;2.30;;;1.25;;
22531;SDS011;11432;46.924;7.114;2022-10-17T01:05:01;1.85;;;1.25;;
22531;SDS011;11432;46.924;7.114;2022-10-17T01:07:27;1.70;;;1.00;;
22531;SDS011;11432;46.924;7.114;2022-10-17T01:09:54;1.80;;;1.10;;
22531;SDS011;11432;46.924;7.114;2022-10-17T01:12:21;2.20;;;1.25;;
22531;SDS011;11432;46.924;7.114;2022-10-17T01:15:17;3.80;;;1.20;;
22531;SDS011;11432;46.924;7.114;2022-10-17T01:26:16;2.13;;;1.20;;
22531;SDS011;11432;46.924;7.114;2022-10-17T01:32:34;1.17;;;0.80;;
22531;SDS011;11432;46.924;7.114;2022-10-17T01:37:49;1.90;;;0.90;;
22531;SDS011;11432;46.924;7.114;2022-10-17T01:40:31;1.30;;;0.85;;
22531;SDS011;11432;46.924;7.114;2022-10-17T01:45:59;2.58;;;1.00;;
22531;SDS011;11432;46.924;7.114;2022-10-17T01:48:33;1.50;;;0.88;;
22531;SDS011;11432;46.924;7.114;2022-10-17T01:51:02;3.15;;;1.00;;
22531;SDS011;11432;46.924;7.114;2022-10-17T01:53:52;1.38;;;0.77;;
22531;SDS011;11432;46.924;7.114;2022-10-17T01:56:37;2.55;;;1.00;;
22531;SDS011;11432;46.924;7.114;2022-10-17T01:59:15;1.10;;;0.95;;
22531;SDS011;11432;46.924;7.114;2022-10-17T02:01:47;2.67;;;0.90;;
22531;SDS011;11432;46.924;7.114;2022-10-17T02:04:15;1.67;;;1.23;;
22531;SDS011;11432;46.924;7.114;2022-10-17T02:06:41;1.80;;;1.10;;
22531;SDS011;11432;46.924;7.114;2022-10-17T02:09:25;1.05;;;0.80;;
22531;SDS011;11432;46.924;7.114;2022-10-17T02:14:31;1.23;;;0.77;;
22531;SDS011;11432;46.924;7.114;2022-10-17T02:25:01;2.90;;;1.00;;
22531;SDS011;11432;46.924;7.114;2022-10-17T02:32:59;2.25;;;1.20;;
22531;SDS011;11432;46.924;7.114;2022-10-17T02:35:32;1.83;;;1.15;;
22531;SDS011;11432;46.924;7.114;2022-10-17T02:38:01;1.92;;;0.90;;
22531;SDS011;11432;46.924;7.114;2022-10-17T02:40:29;1.75;;;1.10;;
22531;SDS011;11432;46.924;7.114;2022-10-17T02:42:55;4.38;;;1.17;;
22531;SDS011;11432;46.924;7.114;2022-10-17T02:45:25;3.10;;;0.95;;
22531;SDS011;11432;46.924;7.114;2022-10-17T02:48:05;3.55;;;1.40;;
22531;SDS011;11432;46.924;7.114;2022-10-17T02:50:42;1.88;;;1.10;;
22531;SDS011;11432;46.924;7.114;2022-10-17T02:53:22;4.95;;;1.00;;
22531;SDS011;11432;46.924;7.114;2022-10-17T02:55:55;1.63;;;1.10;;
22531;SDS011;11432;46.924;7.114;2022-10-17T02:58:25;2.15;;;1.17;;
22531;SDS011;11432;46.924;7.114;2022-10-17T03:00:55;1.58;;;0.88;;
22531;SDS011;11432;46.924;7.114;2022-10-17T03:03:23;1.20;;;0.82;;
22531;SDS011;11432;46.924;7.114;2022-10-17T03:05:53;2.60;;;1.02;;
22531;SDS011;11432;46.924;7.114;2022-10-17T03:08:19;2.90;;;1.20;;
22531;SDS011;11432;46.924;7.114;2022-10-17T03:10:46;2.63;;;1.33;;
22531;SDS011;11432;46.924;7.114;2022-10-17T03:13:12;5.07;;;1.20;;
22531;SDS011;11432;46.924;7.114;2022-10-17T03:15:38;2.15;;;1.27;;
22531;SDS011;11432;46.924;7.114;2022-10-17T03:18:04;3.95;;;1.30;;
22531;SDS011;11432;46.924;7.114;2022-10-17T03:20:29;1.58;;;0.90;;
22531;SDS011;11432;46.924;7.114;2022-10-17T03:22:55;2.88;;;1.20;;
22531;SDS011;11432;46.924;7.114;2022-10-17T03:25:20;1.75;;;1.08;;
22531;SDS011;11432;46.924;7.114;2022-10-17T03:27:46;1.40;;;1.08;;
22531;SDS011;11432;46.924;7.114;2022-10-17T03:30:12;2.60;;;1.20;;
22531;SDS011;11432;46.924;7.114;2022-10-17T03:32:37;2.28;;;1.15;;
22531;SDS011;11432;46.924;7.114;2022-10-17T03:35:03;2.42;;;1.05;;
22531;SDS011;11432;46.924;7.114;2022-10-17T03:37:29;1.80;;;0.80;;
22531;SDS011;11432;46.924;7.114;2022-10-17T03:39:55;1.55;;;0.90;;
22531;SDS011;11432;46.924;7.114;2022-10-17T03:42:20;3.65;;;1.05;;
22531;SDS011;11432;46.924;7.114;2022-10-17T03:44:46;2.25;;;0.90;;
22531;SDS011;11432;46.924;7.114;2022-10-17T03:47:12;2.33;;;1.30;;
22531;SDS011;11432;46.924;7.114;2022-10-17T03:49:37;1.98;;;1.20;;
22531;SDS011;11432;46.924;7.114;2022-10-17T03:52:03;1.27;;;1.00;;
22531;SDS011;11432;46.924;7.114;2022-10-17T03:54:28;1.98;;;0.90;;
22531;SDS011;11432;46.924;7.114;2022-10-17T03:56:54;1.88;;;1.05;;
22531;SDS011;11432;46.924;7.114;2022-10-17T03:59:19;1.50;;;0.98;;
22531;SDS011;11432;46.924;7.114;2022-10-17T04:01:45;3.08;;;1.23;;
22531;SDS011;11432;46.924;7.114;2022-10-17T04:04:11;1.73;;;1.13;;
22531;SDS011;11432;46.924;7.114;2022-10-17T04:06:37;1.88;;;1.10;;
22531;SDS011;11432;46.924;7.114;2022-10-17T04:09:03;1.98;;;1.00;;
22531;SDS011;11432;46.924;7.114;2022-10-17T04:11:30;1.10;;;1.00;;
22531;SDS011;11432;46.924;7.114;2022-10-17T04:13:55;1.75;;;0.90;;
22531;SDS011;11432;46.924;7.114;2022-10-17T04:16:23;1.33;;;0.80;;
22531;SDS011;11432;46.924;7.114;2022-10-17T04:18:53;1.92;;;1.05;;
22531;SDS011;11432;46.924;7.114;2022-10-17T04:21:20;3.17;;;1.17;;
22531;SDS011;11432;46.924;7.114;2022-10-17T04:23:46;2.40;;;1.30;;
22531;SDS011;11432;46.924;7.114;2022-10-17T04:26:12;2.58;;;1.00;;
22531;SDS011;11432;46.924;7.114;2022-10-17T04:28:38;1.73;;;1.10;;
22531;SDS011;11432;46.924;7.114;2022-10-17T04:31:08;1.92;;;1.00;;
22531;SDS011;11432;46.924;7.114;2022-10-17T04:33:37;1.60;;;1.10;;
22531;SDS011;11432;46.924;7.114;2022-10-17T04:36:06;1.63;;;0.98;;
22531;SDS011;11432;46.924;7.114;2022-10-17T04:38:35;1.38;;;1.10;;
22531;SDS011;11432;46.924;7.114;2022-10-17T04:41:02;4.05;;;1.40;;
22531;SDS011;11432;46.924;7.114;2022-10-17T04:43:29;1.67;;;1.10;;
22531;SDS011;11432;46.924;7.114;2022-10-17T04:45:56;1.50;;;1.00;;
22531;SDS011;11432;46.924;7.114;2022-10-17T04:48:22;3.20;;;1.13;;
22531;SDS011;11432;46.924;7.114;2022-10-17T04:50:55;3.60;;;1.15;;
22531;SDS011;11432;46.924;7.114;2022-10-17T04:53:36;2.17;;;1.25;;
22531;SDS011;11432;46.924;7.114;2022-10-17T04:56:17;2.92;;;1.30;;
22531;SDS011;11432;46.924;7.114;2022-10-17T04:58:44;2.67;;;1.00;;
22531;SDS011;11432;46.924;7.114;2022-10-17T05:01:11;3.58;;;1.10;;
22531;SDS011;11432;46.924;7.114;2022-10-17T05:03:40;2.08;;;0.93;;
22531;SDS011;11432;46.924;7.114;2022-10-17T05:06:10;2.95;;;1.00;;
22531;SDS011;11432;46.924;7.114;2022-10-17T05:08:37;3.47;;;1.30;;
22531;SDS011;11432;46.924;7.114;2022-10-17T05:11:03;1.83;;;1.08;;
22531;SDS011;11432;46.924;7.114;2022-10-17T05:13:30;1.60;;;1.10;;
22531;SDS011;11432;46.924;7.114;2022-10-17T05:15:59;1.73;;;1.05;;
22531;SDS011;11432;46.924;7.114;2022-10-17T05:20:51;1.85;;;1.30;;
22531;SDS011;11432;46.924;7.114;2022-10-17T05:23:17;4.30;;;1.38;;
22531;SDS011;11432;46.924;7.114;2022-10-17T05:25:43;5.93;;;1.40;;
22531;SDS011;11432;46.924;7.114;2022-10-17T05:28:08;2.58;;;1.48;;
22531;SDS011;11432;46.924;7.114;2022-10-17T05:30:34;1.90;;;1.25;;
22531;SDS011;11432;46.924;7.114;2022-10-17T05:33:00;1.77;;;1.10;;
22531;SDS011;11432;46.924;7.114;2022-10-17T05:35:26;3.47;;;1.65;;
22531;SDS011;11432;46.924;7.114;2022-10-17T05:37:52;1.85;;;1.23;;
22531;SDS011;11432;46.924;7.114;2022-10-17T05:40:18;1.83;;;1.30;;
22531;SDS011;11432;46.924;7.114;2022-10-17T05:42:46;1.88;;;1.13;;
22531;SDS011;11432;46.924;7.114;2022-10-17T05:45:13;2.53;;;1.20;;
22531;SDS011;11432;46.924;7.114;2022-10-17T05:47:39;4.07;;;1.25;;
22531;SDS011;11432;46.924;7.114;2022-10-17T05:50:05;1.98;;;1.10;;
22531;SDS011;11432;46.924;7.114;2022-10-17T05:52:32;3.30;;;1.30;;
22531;SDS011;11432;46.924;7.114;2022-10-17T05:54:58;1.48;;;1.00;;
22531;SDS011;11432;46.924;7.114;2022-10-17T05:57:24;1.92;;;0.95;;
22531;SDS011;11432;46.924;7.114;2022-10-17T05:59:50;1.35;;;0.85;;
22531;SDS011;11432;46.924;7.114;2022-10-17T06:02:16;1.60;;;1.10;;
22531;SDS011;11432;46.924;7.114;2022-10-17T06:04:41;4.97;;;1.52;;
22531;SDS011;11432;46.924;7.114;2022-10-17T06:07:10;2.80;;;1.35;;
22531;SDS011;11432;46.924;7.114;2022-10-17T06:12:05;1.80;;;1.17;;
22531;SDS011;11432;46.924;7.114;2022-10-17T06:14:31;1.48;;;0.90;;
22531;SDS011;11432;46.924;7.114;2022-10-17T06:16:56;2.08;;;1.05;;
22531;SDS011;11432;46.924;7.114;2022-10-17T06:19:23;2.10;;;1.15;;
22531;SDS011;11432;46.924;7.114;2022-10-17T06:21:48;2.70;;;1.00;;
22531;SDS011;11432;46.924;7.114;2022-10-17T06:24:14;2.28;;;1.10;;
22531;SDS011;11432;46.924;7.114;2022-10-17T06:26:40;1.92;;;1.00;;
22531;SDS011;11432;46.924;7.114;2022-10-17T06:29:05;1.95;;;1.13;;
22531;SDS011;11432;46.924;7.114;2022-10-17T06:31:31;1.75;;;1.10;;
22531;SDS011;11432;46.924;7.114;2022-10-17T06:33:57;2.90;;;1.05;;
22531;SDS011;11432;46.924;7.114;2022-10-17T06:36:22;3.05;;;1.10;;
22531;SDS011;11432;46.924;7.114;2022-10-17T06:38:48;2.35;;;0.90;;
22531;SDS011;11432;46.924;7.114;2022-10-17T06:41:14;2.13;;;1.10;;
22531;SDS011;11432;46.924;7.114;2022-10-17T06:43:43;2.45;;;1.17;;
22531;SDS011;11432;46.924;7.114;2022-10-17T06:46:10;3.13;;;1.38;;
22531;SDS011;11432;46.924;7.114;2022-10-17T06:48:36;1.40;;;0.90;;
22531;SDS011;11432;46.924;7.114;2022-10-17T06:51:02;1.42;;;1.10;;
22531;SDS011;11432;46.924;7.114;2022-10-17T06:53:30;1.85;;;1.10;;
22531;SDS011;11432;46.924;7.114;2022-10-17T06:55:57;1.23;;;0.90;;
22531;SDS011;11432;46.924;7.114;2022-10-17T06:58:31;3.22;;;1.25;;
22531;SDS011;11432;46.924;7.114;2022-10-17T07:01:06;3.58;;;1.00;;
22531;SDS011;11432;46.924;7.114;2022-10-17T07:03:37;4.18;;;1.73;;
22531;SDS011;11432;46.924;7.114;2022-10-17T07:06:04;4.30;;;1.17;;
22531;SDS011;11432;46.924;7.114;2022-10-17T07:08:29;1.92;;;1.10;;
22531;SDS011;11432;46.924;7.114;2022-10-17T07:10:55;2.25;;;1.10;;
22531;SDS011;11432;46.924;7.114;2022-10-17T07:13:21;2.22;;;1.20;;
22531;SDS011;11432;46.924;7.114;2022-10-17T07:15:47;2.80;;;1.27;;
22531;SDS011;11432;46.924;7.114;2022-10-17T07:18:13;3.58;;;1.65;;
22531;SDS011;11432;46.924;7.114;2022-10-17T07:20:38;3.25;;;1.60;;
22531;SDS011;11432;46.924;7.114;2022-10-17T07:23:04;2.47;;;1.45;;
22531;SDS011;11432;46.924;7.114;2022-10-17T07:25:30;4.88;;;1.40;;
22531;SDS011;11432;46.924;7.114;2022-10-17T07:27:56;6.03;;;1.58;;
22531;SDS011;11432;46.924;7.114;2022-10-17T07:30:22;5.60;;;1.23;;
22531;SDS011;11432;46.924;7.114;2022-10-17T07:32:47;2.60;;;1.50;;
22531;SDS011;11432;46.924;7.114;2022-10-17T07:35:16;3.37;;;1.60;;
22531;SDS011;11432;46.924;7.114;2022-10-17T07:37:42;2.67;;;1.50;;
22531;SDS011;11432;46.924;7.114;2022-10-17T07:40:07;4.43;;;1.20;;
22531;SDS011;11432;46.924;7.114;2022-10-17T07:42:36;4.22;;;1.70;;
22531;SDS011;11432;46.924;7.114;2022-10-17T07:45:03;4.20;;;1.40;;
22531;SDS011;11432;46.924;7.114;2022-10-17T07:47:29;2.13;;;1.30;;
22531;SDS011;11432;46.924;7.114;2022-10-17T07:49:57;3.15;;;1.70;;
22531;SDS011;11432;46.924;7.114;2022-10-17T07:52:22;1.98;;;1.50;;
22531;SDS011;11432;46.924;7.114;2022-10-17T07:54:48;1.98;;;1.48;;
22531;SDS011;11432;46.924;7.114;2022-10-17T07:57:14;2.55;;;1.35;;
22531;SDS011;11432;46.924;7.114;2022-10-17T07:59:39;4.05;;;1.80;;
22531;SDS011;11432;46.924;7.114;2022-10-17T08:02:05;2.00;;;1.50;;
22531;SDS011;11432;46.924;7.114;2022-10-17T08:04:33;2.15;;;1.70;;
22531;SDS011;11432;46.924;7.114;2022-10-17T08:07:00;2.42;;;1.35;;
22531;SDS011;11432;46.924;7.114;2022-10-17T08:09:26;2.22;;;1.60;;
22531;SDS011;11432;46.924;7.114;2022-10-17T08:11:51;2.85;;;1.50;;
22531;SDS011;11432;46.924;7.114;2022-10-17T08:14:18;2.47;;;1.48;;
22531;SDS011;11432;46.924;7.114;2022-10-17T08:16:43;2.85;;;1.75;;
22531;SDS011;11432;46.924;7.114;2022-10-17T08:19:10;3.78;;;1.40;;
22531;SDS011;11432;46.924;7.114;2022-10-17T08:21:36;2.75;;;1.70;;
22531;SDS011;11432;46.924;7.114;2022-10-17T08:24:03;3.63;;;1.85;;
22531;SDS011;11432;46.924;7.114;2022-10-17T08:26:29;3.22;;;1.60;;
22531;SDS011;11432;46.924;7.114;2022-10-17T08:28:54;4.53;;;1.67;;
22531;SDS011;11432;46.924;7.114;2022-10-17T08:31:20;5.25;;;1.60;;
22531;SDS011;11432;46.924;7.114;2022-10-17T08:33:47;4.85;;;1.60;;
22531;SDS011;11432;46.924;7.114;2022-10-17T08:36:14;1.65;;;1.30;;
22531;SDS011;11432;46.924;7.114;2022-10-17T08:38:42;1.67;;;1.27;;
22531;SDS011;11432;46.924;7.114;2022-10-17T08:44:02;2.97;;;1.50;;
22531;SDS011;11432;46.924;7.114;2022-10-17T08:46:43;4.57;;;1.75;;
22531;SDS011;11432;46.924;7.114;2022-10-17T08:49:14;3.35;;;1.60;;
22531;SDS011;11432;46.924;7.114;2022-10-17T08:51:52;5.80;;;1.73;;
22531;SDS011;11432;46.924;7.114;2022-10-17T08:54:25;3.15;;;1.65;;
22531;SDS011;11432;46.924;7.114;2022-10-17T08:57:07;2.47;;;1.40;;
22531;SDS011;11432;46.924;7.114;2022-10-17T08:59:39;3.17;;;1.60;;
22531;SDS011;11432;46.924;7.114;2022-10-17T09:02:13;3.38;;;1.98;;
22531;SDS011;11432;46.924;7.114;2022-10-17T09:07:48;3.25;;;1.90;;
22531;SDS011;11432;46.924;7.114;2022-10-17T09:18:23;3.58;;;1.98;;
22531;SDS011;11432;46.924;7.114;2022-10-17T09:21:01;3.58;;;1.85;;
22531;SDS011;11432;46.924;7.114;2022-10-17T09:23:48;4.32;;;1.92;;
22531;SDS011;11432;46.924;7.114;2022-10-17T09:26:16;3.08;;;1.80;;
22531;SDS011;11432;46.924;7.114;2022-10-17T09:28:42;5.15;;;2.00;;
22531;SDS011;11432;46.924;7.114;2022-10-17T09:31:20;5.28;;;1.90;;
22531;SDS011;11432;46.924;7.114;2022-10-17T09:33:49;2.60;;;1.77;;
22531;SDS011;11432;46.924;7.114;2022-10-17T09:36:17;3.42;;;2.22;;
22531;SDS011;11432;46.924;7.114;2022-10-17T09:38:52;3.25;;;2.00;;
22531;SDS011;11432;46.924;7.114;2022-10-17T09:41:39;3.97;;;1.80;;
22531;SDS011;11432;46.924;7.114;2022-10-17T09:44:13;2.85;;;1.80;;
22531;SDS011;11432;46.924;7.114;2022-10-17T09:46:41;3.95;;;1.98;;
22531;SDS011;11432;46.924;7.114;2022-10-17T09:49:23;3.38;;;2.13;;
22531;SDS011;11432;46.924;7.114;2022-10-17T09:51:55;2.80;;;1.95;;
22531;SDS011;11432;46.924;7.114;2022-10-17T09:54:23;3.20;;;1.90;;
22531;SDS011;11432;46.924;7.114;2022-10-17T09:57:00;2.60;;;1.73;;
22531;SDS011;11432;46.924;7.114;2022-10-17T09:59:31;3.58;;;2.15;;
22531;SDS011;11432;46.924;7.114;2022-10-17T10:07:20;2.63;;;1.95;;
22531;SDS011;11432;46.924;7.114;2022-10-17T10:09:47;3.08;;;1.85;;
22531;SDS011;11432;46.924;7.114;2022-10-17T10:13:00;3.25;;;1.73;;
22531;SDS011;11432;46.924;7.114;2022-10-17T10:17:59;3.08;;;2.20;;
22531;SDS011;11432;46.924;7.114;2022-10-17T10:20:30;6.90;;;2.20;;
22531;SDS011;11432;46.924;7.114;2022-10-17T10:23:04;3.88;;;1.80;;
22531;SDS011;11432;46.924;7.114;2022-10-17T10:25:31;5.22;;;2.22;;
22531;SDS011;11432;46.924;7.114;2022-10-17T10:27:58;3.90;;;1.50;;
22531;SDS011;11432;46.924;7.114;2022-10-17T10:30:26;2.72;;;1.63;;
22531;SDS011;11432;46.924;7.114;2022-10-17T10:32:53;4.10;;;1.60;;
22531;SDS011;11432;46.924;7.114;2022-10-17T10:35:24;3.60;;;1.92;;
22531;SDS011;11432;46.924;7.114;2022-10-17T10:37:55;3.55;;;1.90;;
22531;SDS011;11432;46.924;7.114;2022-10-17T10:40:25;2.90;;;2.00;;
22531;SDS011;11432;46.924;7.114;2022-10-17T10:42:57;4.55;;;1.85;;
22531;SDS011;11432;46.924;7.114;2022-10-17T10:45:28;3.42;;;1.95;;
22531;SDS011;11432;46.924;7.114;2022-10-17T10:50:55;4.07;;;1.77;;
22531;SDS011;11432;46.924;7.114;2022-10-17T10:53:46;2.55;;;1.45;;
22531;SDS011;11432;46.924;7.114;2022-10-17T10:56:32;2.80;;;2.00;;
22531;SDS011;11432;46.924;7.114;2022-10-17T11:01:53;2.00;;;1.40;;
22531;SDS011;11432;46.924;7.114;2022-10-17T11:04:28;2.70;;;1.55;;
22531;SDS011;11432;46.924;7.114;2022-10-17T11:07:10;3.35;;;1.60;;
22531;SDS011;11432;46.924;7.114;2022-10-17T11:12:35;3.58;;;1.60;;
22531;SDS011;11432;46.924;7.114;2022-10-17T11:15:13;3.28;;;1.80;;
22531;SDS011;11432;46.924;7.114;2022-10-17T11:17:45;2.75;;;1.65;;
22531;SDS011;11432;46.924;7.114;2022-10-17T11:22:47;2.22;;;1.52;;
22531;SDS011;11432;46.924;7.114;2022-10-17T11:25:37;4.25;;;2.47;;
22531;SDS011;11432;46.924;7.114;2022-10-17T11:28:12;3.88;;;2.13;;
22531;SDS011;11432;46.924;7.114;2022-10-17T11:30:53;3.58;;;2.13;;
22531;SDS011;11432;46.924;7.114;2022-10-17T11:33:26;4.15;;;2.38;;
22531;SDS011;11432;46.924;7.114;2022-10-17T11:36:02;4.32;;;2.30;;
22531;SDS011;11432;46.924;7.114;2022-10-17T11:38:45;3.55;;;2.45;;
22531;SDS011;11432;46.924;7.114;2022-10-17T11:41:14;5.47;;;2.50;;
22531;SDS011;11432;46.924;7.114;2022-10-17T11:44:02;3.83;;;2.50;;
22531;SDS011;11432;46.924;7.114;2022-10-17T11:46:35;3.28;;;2.17;;
22531;SDS011;11432;46.924;7.114;2022-10-17T11:51:48;4.82;;;2.10;;
22531;SDS011;11432;46.924;7.114;2022-10-17T11:54:37;2.75;;;2.00;;
22531;SDS011;11432;46.924;7.114;2022-10-17T12:00:05;2.90;;;2.03;;
22531;SDS011;11432;46.924;7.114;2022-10-17T12:02:48;4.40;;;2.45;;
22531;SDS011;11432;46.924;7.114;2022-10-17T12:08:45;5.72;;;2.72;;
22531;SDS011;11432;46.924;7.114;2022-10-17T12:14:44;2.75;;;1.83;;
22531;SDS011;11432;46.924;7.114;2022-10-17T12:17:26;3.28;;;1.65;;
22531;SDS011;11432;46.924;7.114;2022-10-17T12:22:51;2.50;;;1.80;;
22531;SDS011;11432;46.924;7.114;2022-10-17T12:25:18;2.85;;;2.17;;
22531;SDS011;11432;46.924;7.114;2022-10-17T12:27:46;2.95;;;1.75;;
22531;SDS011;11432;46.924;7.114;2022-10-17T12:30:23;2.67;;;1.80;;
22531;SDS011;11432;46.924;7.114;2022-10-17T12:32:54;2.72;;;1.92;;
22531;SDS011;11432;46.924;7.114;2022-10-17T12:35:21;5.82;;;2.00;;
22531;SDS011;11432;46.924;7.114;2022-10-17T12:43:01;3.72;;;1.50;;
22531;SDS011;11432;46.924;7.114;2022-10-17T12:46:01;4.50;;;1.80;;
22531;SDS011;11432;46.924;7.114;2022-10-17T12:53:37;2.60;;;1.73;;
22531;SDS011;11432;46.924;7.114;2022-10-17T12:56:29;3.10;;;1.90;;
22531;SDS011;11432;46.924;7.114;2022-10-17T12:58:59;3.35;;;1.85;;
22531;SDS011;11432;46.924;7.114;2022-10-17T13:01:30;2.67;;;1.83;;
22531;SDS011;11432;46.924;7.114;2022-10-17T13:03:58;5.75;;;2.38;;
22531;SDS011;11432;46.924;7.114;2022-10-17T13:06:30;4.03;;;2.40;;
22531;SDS011;11432;46.924;7.114;2022-10-17T13:09:04;7.00;;;2.22;;
22531;SDS011;11432;46.924;7.114;2022-10-17T13:11:41;2.72;;;2.28;;
22531;SDS011;11432;46.924;7.114;2022-10-17T13:14:11;4.75;;;2.20;;
22531;SDS011;11432;46.924;7.114;2022-10-17T13:16:39;6.07;;;2.10;;
22531;SDS011;11432;46.924;7.114;2022-10-17T13:19:16;3.97;;;2.58;;
22531;SDS011;11432;46.924;7.114;2022-10-17T13:26:54;4.13;;;2.55;;
22531;SDS011;11432;46.924;7.114;2022-10-17T13:29:19;2.78;;;1.98;;
22531;SDS011;11432;46.924;7.114;2022-10-17T13:31:51;3.15;;;2.10;;
22531;SDS011;11432;46.924;7.114;2022-10-17T13:34:22;3.05;;;2.13;;
22531;SDS011;11432;46.924;7.114;2022-10-17T13:36:50;5.13;;;2.10;;
22531;SDS011;11432;46.924;7.114;2022-10-17T13:39:19;7.35;;;2.20;;
22531;SDS011;11432;46.924;7.114;2022-10-17T13:41:47;3.50;;;1.90;;
22531;SDS011;11432;46.924;7.114;2022-10-17T13:44:15;3.63;;;2.03;;
22531;SDS011;11432;46.924;7.114;2022-10-17T13:46:44;3.85;;;1.92;;
22531;SDS011;11432;46.924;7.114;2022-10-17T13:51:43;3.35;;;1.80;;
22531;SDS011;11432;46.924;7.114;2022-10-17T13:57:28;4.35;;;1.95;;
22531;SDS011;11432;46.924;7.114;2022-10-17T14:00:02;2.90;;;1.75;;
22531;SDS011;11432;46.924;7.114;2022-10-17T14:02:31;3.45;;;1.90;;
22531;SDS011;11432;46.924;7.114;2022-10-17T14:07:51;3.55;;;2.05;;
22531;SDS011;11432;46.924;7.114;2022-10-17T14:12:49;3.03;;;1.95;;
22531;SDS011;11432;46.924;7.114;2022-10-17T14:15:17;7.82;;;2.08;;
22531;SDS011;11432;46.924;7.114;2022-10-17T14:17:43;3.78;;;1.77;;
22531;SDS011;11432;46.924;7.114;2022-10-17T14:20:17;2.67;;;1.75;;
22531;SDS011;11432;46.924;7.114;2022-10-17T14:25:29;3.22;;;1.90;;
22531;SDS011;11432;46.924;7.114;2022-10-17T14:30:33;3.55;;;2.20;;
22531;SDS011;11432;46.924;7.114;2022-10-17T14:33:01;3.08;;;1.98;;
22531;SDS011;11432;46.924;7.114;2022-10-17T14:35:29;2.65;;;2.13;;
22531;SDS011;11432;46.924;7.114;2022-10-17T14:37:59;4.40;;;2.10;;
22531;SDS011;11432;46.924;7.114;2022-10-17T14:40:27;4.05;;;2.63;;
22531;SDS011;11432;46.924;7.114;2022-10-17T14:42:54;4.90;;;2.35;;
22531;SDS011;11432;46.924;7.114;2022-10-17T14:47:58;2.63;;;1.70;;
22531;SDS011;11432;46.924;7.114;2022-10-17T14:50:28;5.55;;;2.70;;
22531;SDS011;11432;46.924;7.114;2022-10-17T14:52:59;3.85;;;2.38;;
22531;SDS011;11432;46.924;7.114;2022-10-17T14:55:34;5.90;;;2.75;;
22531;SDS011;11432;46.924;7.114;2022-10-17T14:58:13;3.97;;;2.30;;
22531;SDS011;11432;46.924;7.114;2022-10-17T15:00:43;4.30;;;2.25;;
22531;SDS011;11432;46.924;7.114;2022-10-17T15:03:08;4.88;;;2.20;;
22531;SDS011;11432;46.924;7.114;2022-10-17T15:05:34;5.28;;;2.45;;
22531;SDS011;11432;46.924;7.114;2022-10-17T15:07:59;4.53;;;2.45;;
22531;SDS011;11432;46.924;7.114;2022-10-17T15:10:35;4.43;;;2.20;;
22531;SDS011;11432;46.924;7.114;2022-10-17T15:13:05;4.00;;;2.35;;
22531;SDS011;11432;46.924;7.114;2022-10-17T15:15:31;4.03;;;2.42;;
22531;SDS011;11432;46.924;7.114;2022-10-17T15:17:57;5.00;;;2.30;;
22531;SDS011;11432;46.924;7.114;2022-10-17T15:20:24;3.17;;;1.90;;
22531;SDS011;11432;46.924;7.114;2022-10-17T15:22:55;5.97;;;2.92;;
22531;SDS011;11432;46.924;7.114;2022-10-17T15:25:22;4.18;;;2.00;;
22531;SDS011;11432;46.924;7.114;2022-10-17T15:27:49;4.65;;;2.53;;
22531;SDS011;11432;46.924;7.114;2022-10-17T15:30:28;5.40;;;2.83;;
22531;SDS011;11432;46.924;7.114;2022-10-17T15:32:56;3.53;;;2.38;;
22531;SDS011;11432;46.924;7.114;2022-10-17T15:35:22;4.07;;;2.67;;
22531;SDS011;11432;46.924;7.114;2022-10-17T15:37:49;4.18;;;2.13;;
22531;SDS011;11432;46.924;7.114;2022-10-17T15:40:16;4.53;;;2.67;;
22531;SDS011;11432;46.924;7.114;2022-10-17T15:42:43;5.80;;;2.42;;
22531;SDS011;11432;46.924;7.114;2022-10-17T15:45:10;4.05;;;2.47;;
22531;SDS011;11432;46.924;7.114;2022-10-17T15:47:36;3.50;;;2.45;;
22531;SDS011;11432;46.924;7.114;2022-10-17T15:50:03;2.95;;;1.80;;
22531;SDS011;11432;46.924;7.114;2022-10-17T15:52:31;2.90;;;2.00;;
22531;SDS011;11432;46.924;7.114;2022-10-17T15:54:56;4.10;;;2.20;;
22531;SDS011;11432;46.924;7.114;2022-10-17T15:57:33;4.68;;;2.47;;
22531;SDS011;11432;46.924;7.114;2022-10-17T16:00:03;6.85;;;3.22;;
22531;SDS011;11432;46.924;7.114;2022-10-17T16:02:30;7.53;;;3.22;;
22531;SDS011;11432;46.924;7.114;2022-10-17T16:04:57;4.43;;;2.72;;
22531;SDS011;11432;46.924;7.114;2022-10-17T16:07:23;5.70;;;2.78;;
22531;SDS011;11432;46.924;7.114;2022-10-17T16:09:49;4.43;;;2.42;;
22531;SDS011;11432;46.924;7.114;2022-10-17T16:12:16;8.18;;;5.28;;
22531;SDS011;11432;46.924;7.114;2022-10-17T16:14:46;3.70;;;2.47;;
22531;SDS011;11432;46.924;7.114;2022-10-17T16:17:15;2.92;;;2.15;;
22531;SDS011;11432;46.924;7.114;2022-10-17T16:19:41;4.47;;;2.47;;
22531;SDS011;11432;46.924;7.114;2022-10-17T16:22:23;4.40;;;2.22;;
22531;SDS011;11432;46.924;7.114;2022-10-17T16:25:00;3.25;;;2.10;;
22531;SDS011;11432;46.924;7.114;2022-10-17T16:27:33;3.35;;;2.10;;
22531;SDS011;11432;46.924;7.114;2022-10-17T16:30:05;4.55;;;2.55;;
22531;SDS011;11432;46.924;7.114;2022-10-17T16:32:32;5.05;;;2.20;;
22531;SDS011;11432;46.924;7.114;2022-10-17T16:34:58;3.22;;;2.05;;
22531;SDS011;11432;46.924;7.114;2022-10-17T16:37:24;4.13;;;2.50;;
22531;SDS011;11432;46.924;7.114;2022-10-17T16:39:50;4.32;;;2.85;;
22531;SDS011;11432;46.924;7.114;2022-10-17T16:42:18;3.63;;;2.45;;
22531;SDS011;11432;46.924;7.114;2022-10-17T16:44:44;4.93;;;3.03;;
22531;SDS011;11432;46.924;7.114;2022-10-17T16:47:11;4.50;;;3.13;;
22531;SDS011;11432;46.924;7.114;2022-10-17T16:49:36;5.15;;;2.85;;
22531;SDS011;11432;46.924;7.114;2022-10-17T16:52:02;4.85;;;2.63;;
22531;SDS011;11432;46.924;7.114;2022-10-17T16:54:28;4.78;;;2.63;;
22531;SDS011;11432;46.924;7.114;2022-10-17T16:56:54;5.90;;;3.40;;
22531;SDS011;11432;46.924;7.114;2022-10-17T16:59:21;3.97;;;2.70;;
22531;SDS011;11432;46.924;7.114;2022-10-17T17:01:48;6.05;;;2.50;;
22531;SDS011;11432;46.924;7.114;2022-10-17T17:04:13;4.68;;;2.90;;